Página principal
METAR-TAF:

METAR-TAF

Aeroportos :

Aeroporto Internacional de Bonriki

Tarawa, Kiribati

latitude: 01-21N, longitude: 172-55E, altura: 2 m

Observação actual do tempo

O boletim foi feito há 22 minutos, às 19:00 UTC
Vento 3 kt de es-sudeste
Temperatura 28°C
Humidade 79%
Pressão 1008 hPa
Visibilidade 10 km ou mais
Poucas nuvensa uma altura de 2000 ft
Nuvens dispersasa uma altura de 30000 ft

METAR: NGTA 141900Z 12003KT 9999 FEW020 SCT300 28/24 Q1008

Hora: 09:22 (19:22 UTC)

Previsão

O boletim foi feito há 2 horas e 6 minutos, às 17:16 UTC
Previsão válida de 14 às 18 UTC a 15 às 18 UTC
Vento 8 kt de este
Visibilidade 10 km ou mais
Nuvens dispersasa uma altura de 1800 ft
Nuvens fragmentadasa uma altura de 10000 ft
Probabilidade 30% :
Temporariamente
de 14 às 22 UTC a 15 às 06 UTC
Visibilidade: 5000 m
Nuvens fragmentadasa uma altura de 1500 ft
aguaceiros de chuva

TAF: NGTA 141716Z 1418/1518 10008KT 9999 SCT018 BKN100 PROB30 TEMPO 1422/1506 5000 SHRA BKN015

Observações e previsões do tempo de mais de 4000 aeroportos (mensagens METAR e TAF).

As estações disponíveis são os pontos amarelos e vermelhos sobre o mapa.

Mova o rato sobre o mapa para ver o nome da estação.

Depois clique no ponto para visualizar as observações e previsões meteorológicas.

Para alterar o mapa : clique nos botões verdes com uma cruz preta para aumentar o zoom; no botão verde com uma pitada de zoom; ou nas setas verdes para mapas adjacentes.


METAR-TAF: